sensor_id;sensor_type;location;lat;lon;timestamp;P1;durP1;ratioP1;P2;durP2;ratioP2
25435;SDS011;13363;52.772;-3.890;2024-03-07T00:00:27;6.40;;;4.57;;
25435;SDS011;13363;52.772;-3.890;2024-03-07T00:02:53;10.90;;;4.97;;
25435;SDS011;13363;52.772;-3.890;2024-03-07T00:05:20;9.10;;;5.37;;
25435;SDS011;13363;52.772;-3.890;2024-03-07T00:07:49;9.43;;;4.50;;
25435;SDS011;13363;52.772;-3.890;2024-03-07T00:10:15;5.57;;;4.07;;
25435;SDS011;13363;52.772;-3.890;2024-03-07T00:12:42;7.90;;;4.63;;
25435;SDS011;13363;52.772;-3.890;2024-03-07T00:15:08;7.70;;;4.30;;
25435;SDS011;13363;52.772;-3.890;2024-03-07T00:17:36;6.67;;;4.20;;
25435;SDS011;13363;52.772;-3.890;2024-03-07T00:20:02;7.80;;;4.43;;
25435;SDS011;13363;52.772;-3.890;2024-03-07T00:22:30;9.13;;;4.47;;
25435;SDS011;13363;52.772;-3.890;2024-03-07T00:24:56;6.33;;;4.77;;
25435;SDS011;13363;52.772;-3.890;2024-03-07T00:27:22;9.47;;;4.83;;
25435;SDS011;13363;52.772;-3.890;2024-03-07T00:29:49;8.30;;;4.43;;
25435;SDS011;13363;52.772;-3.890;2024-03-07T00:32:19;9.27;;;4.37;;
25435;SDS011;13363;52.772;-3.890;2024-03-07T00:34:45;9.40;;;4.17;;
25435;SDS011;13363;52.772;-3.890;2024-03-07T00:37:11;9.03;;;4.43;;
25435;SDS011;13363;52.772;-3.890;2024-03-07T00:39:38;8.17;;;3.97;;
25435;SDS011;13363;52.772;-3.890;2024-03-07T00:42:04;5.73;;;4.03;;
25435;SDS011;13363;52.772;-3.890;2024-03-07T00:44:30;7.33;;;4.30;;
25435;SDS011;13363;52.772;-3.890;2024-03-07T00:46:57;4.07;;;3.33;;
25435;SDS011;13363;52.772;-3.890;2024-03-07T00:49:23;9.50;;;4.90;;
25435;SDS011;13363;52.772;-3.890;2024-03-07T00:51:49;7.53;;;4.77;;
25435;SDS011;13363;52.772;-3.890;2024-03-07T00:54:16;12.53;;;5.03;;
25435;SDS011;13363;52.772;-3.890;2024-03-07T00:56:42;11.53;;;4.40;;
25435;SDS011;13363;52.772;-3.890;2024-03-07T00:59:09;9.80;;;4.40;;
25435;SDS011;13363;52.772;-3.890;2024-03-07T01:01:36;12.33;;;4.93;;
25435;SDS011;13363;52.772;-3.890;2024-03-07T01:04:03;8.07;;;4.53;;
25435;SDS011;13363;52.772;-3.890;2024-03-07T01:06:29;9.80;;;5.33;;
25435;SDS011;13363;52.772;-3.890;2024-03-07T01:08:55;6.70;;;4.60;;
25435;SDS011;13363;52.772;-3.890;2024-03-07T01:11:21;7.23;;;4.67;;
25435;SDS011;13363;52.772;-3.890;2024-03-07T01:13:48;11.53;;;5.50;;
25435;SDS011;13363;52.772;-3.890;2024-03-07T01:16:14;8.60;;;5.30;;
25435;SDS011;13363;52.772;-3.890;2024-03-07T01:18:40;7.77;;;4.60;;
25435;SDS011;13363;52.772;-3.890;2024-03-07T01:21:06;8.57;;;5.10;;
25435;SDS011;13363;52.772;-3.890;2024-03-07T01:23:33;8.70;;;5.40;;
25435;SDS011;13363;52.772;-3.890;2024-03-07T01:25:59;7.67;;;5.60;;
25435;SDS011;13363;52.772;-3.890;2024-03-07T01:28:26;13.03;;;6.33;;
25435;SDS011;13363;52.772;-3.890;2024-03-07T01:30:57;7.30;;;5.97;;
25435;SDS011;13363;52.772;-3.890;2024-03-07T01:33:23;10.07;;;5.23;;
25435;SDS011;13363;52.772;-3.890;2024-03-07T01:35:49;6.00;;;3.13;;
25435;SDS011;13363;52.772;-3.890;2024-03-07T01:38:16;10.97;;;5.73;;
25435;SDS011;13363;52.772;-3.890;2024-03-07T01:40:42;7.13;;;5.80;;
25435;SDS011;13363;52.772;-3.890;2024-03-07T01:43:09;11.17;;;6.23;;
25435;SDS011;13363;52.772;-3.890;2024-03-07T01:45:35;12.47;;;6.00;;
25435;SDS011;13363;52.772;-3.890;2024-03-07T01:48:05;10.73;;;6.33;;
25435;SDS011;13363;52.772;-3.890;2024-03-07T01:50:32;10.60;;;6.50;;
25435;SDS011;13363;52.772;-3.890;2024-03-07T01:52:58;8.27;;;6.50;;
25435;SDS011;13363;52.772;-3.890;2024-03-07T01:55:25;10.07;;;6.50;;
25435;SDS011;13363;52.772;-3.890;2024-03-07T01:57:51;9.93;;;5.97;;
25435;SDS011;13363;52.772;-3.890;2024-03-07T02:00:18;10.03;;;7.07;;
25435;SDS011;13363;52.772;-3.890;2024-03-07T02:02:45;8.00;;;6.00;;
25435;SDS011;13363;52.772;-3.890;2024-03-07T02:05:11;7.07;;;6.07;;
25435;SDS011;13363;52.772;-3.890;2024-03-07T02:07:38;6.13;;;3.60;;
25435;SDS011;13363;52.772;-3.890;2024-03-07T02:10:05;5.60;;;4.73;;
25435;SDS011;13363;52.772;-3.890;2024-03-07T02:12:31;9.63;;;6.00;;
25435;SDS011;13363;52.772;-3.890;2024-03-07T02:14:58;8.87;;;6.47;;
25435;SDS011;13363;52.772;-3.890;2024-03-07T02:17:24;11.60;;;5.90;;
25435;SDS011;13363;52.772;-3.890;2024-03-07T02:19:50;5.83;;;4.30;;
25435;SDS011;13363;52.772;-3.890;2024-03-07T02:22:17;8.63;;;6.10;;
25435;SDS011;13363;52.772;-3.890;2024-03-07T02:24:44;6.77;;;5.97;;
25435;SDS011;13363;52.772;-3.890;2024-03-07T02:27:10;10.77;;;6.73;;
25435;SDS011;13363;52.772;-3.890;2024-03-07T02:29:36;7.77;;;6.33;;
25435;SDS011;13363;52.772;-3.890;2024-03-07T02:32:03;10.97;;;6.83;;
25435;SDS011;13363;52.772;-3.890;2024-03-07T02:34:29;9.07;;;6.50;;
25435;SDS011;13363;52.772;-3.890;2024-03-07T02:36:56;11.33;;;4.80;;
25435;SDS011;13363;52.772;-3.890;2024-03-07T02:39:23;10.00;;;6.33;;
25435;SDS011;13363;52.772;-3.890;2024-03-07T02:41:52;9.60;;;6.90;;
25435;SDS011;13363;52.772;-3.890;2024-03-07T02:44:18;8.60;;;6.43;;
25435;SDS011;13363;52.772;-3.890;2024-03-07T02:46:45;9.10;;;6.43;;
25435;SDS011;13363;52.772;-3.890;2024-03-07T02:49:14;6.90;;;5.80;;
25435;SDS011;13363;52.772;-3.890;2024-03-07T02:51:40;10.47;;;6.90;;
25435;SDS011;13363;52.772;-3.890;2024-03-07T02:54:09;9.47;;;6.67;;
25435;SDS011;13363;52.772;-3.890;2024-03-07T02:56:35;9.47;;;6.40;;
25435;SDS011;13363;52.772;-3.890;2024-03-07T02:59:01;9.03;;;6.87;;
25435;SDS011;13363;52.772;-3.890;2024-03-07T03:01:27;7.33;;;6.63;;
25435;SDS011;13363;52.772;-3.890;2024-03-07T03:03:53;12.77;;;7.20;;
25435;SDS011;13363;52.772;-3.890;2024-03-07T03:06:19;7.90;;;6.60;;
25435;SDS011;13363;52.772;-3.890;2024-03-07T03:08:46;6.83;;;6.23;;
25435;SDS011;13363;52.772;-3.890;2024-03-07T03:11:12;9.70;;;6.73;;
25435;SDS011;13363;52.772;-3.890;2024-03-07T03:13:42;11.33;;;7.40;;
25435;SDS011;13363;52.772;-3.890;2024-03-07T03:16:09;10.20;;;7.03;;
25435;SDS011;13363;52.772;-3.890;2024-03-07T03:18:35;7.37;;;6.50;;
25435;SDS011;13363;52.772;-3.890;2024-03-07T03:21:02;8.10;;;6.87;;
25435;SDS011;13363;52.772;-3.890;2024-03-07T03:23:28;8.97;;;6.57;;
25435;SDS011;13363;52.772;-3.890;2024-03-07T03:25:55;8.23;;;6.87;;
25435;SDS011;13363;52.772;-3.890;2024-03-07T03:28:21;10.23;;;6.60;;
25435;SDS011;13363;52.772;-3.890;2024-03-07T03:30:48;8.00;;;7.20;;
25435;SDS011;13363;52.772;-3.890;2024-03-07T03:33:15;9.80;;;7.20;;
25435;SDS011;13363;52.772;-3.890;2024-03-07T03:35:41;9.70;;;6.60;;
25435;SDS011;13363;52.772;-3.890;2024-03-07T03:38:07;7.53;;;6.93;;
25435;SDS011;13363;52.772;-3.890;2024-03-07T03:40:34;8.67;;;6.60;;
25435;SDS011;13363;52.772;-3.890;2024-03-07T03:43:00;9.53;;;7.50;;
25435;SDS011;13363;52.772;-3.890;2024-03-07T03:45:27;11.47;;;7.70;;
25435;SDS011;13363;52.772;-3.890;2024-03-07T03:47:53;8.57;;;7.07;;
25435;SDS011;13363;52.772;-3.890;2024-03-07T03:50:19;10.93;;;7.97;;
25435;SDS011;13363;52.772;-3.890;2024-03-07T03:52:48;8.57;;;7.73;;
25435;SDS011;13363;52.772;-3.890;2024-03-07T03:55:15;14.10;;;8.90;;
25435;SDS011;13363;52.772;-3.890;2024-03-07T03:57:42;12.10;;;8.97;;
25435;SDS011;13363;52.772;-3.890;2024-03-07T04:00:09;13.90;;;10.07;;
25435;SDS011;13363;52.772;-3.890;2024-03-07T04:02:39;11.90;;;9.80;;
25435;SDS011;13363;52.772;-3.890;2024-03-07T04:05:05;16.63;;;10.07;;
25435;SDS011;13363;52.772;-3.890;2024-03-07T04:07:32;11.73;;;9.33;;
25435;SDS011;13363;52.772;-3.890;2024-03-07T04:10:00;10.10;;;9.10;;
25435;SDS011;13363;52.772;-3.890;2024-03-07T04:12:28;14.03;;;8.77;;
25435;SDS011;13363;52.772;-3.890;2024-03-07T04:14:54;14.03;;;9.03;;
25435;SDS011;13363;52.772;-3.890;2024-03-07T04:17:21;9.57;;;8.57;;
25435;SDS011;13363;52.772;-3.890;2024-03-07T04:19:47;11.00;;;9.47;;
25435;SDS011;13363;52.772;-3.890;2024-03-07T04:22:13;13.97;;;9.77;;
25435;SDS011;13363;52.772;-3.890;2024-03-07T04:24:40;12.40;;;9.93;;
25435;SDS011;13363;52.772;-3.890;2024-03-07T04:27:07;13.40;;;9.67;;
25435;SDS011;13363;52.772;-3.890;2024-03-07T04:29:34;11.50;;;9.07;;
25435;SDS011;13363;52.772;-3.890;2024-03-07T04:32:01;11.67;;;9.77;;
25435;SDS011;13363;52.772;-3.890;2024-03-07T04:34:28;14.87;;;10.00;;
25435;SDS011;13363;52.772;-3.890;2024-03-07T04:36:58;10.43;;;8.73;;
25435;SDS011;13363;52.772;-3.890;2024-03-07T04:39:25;10.10;;;8.13;;
25435;SDS011;13363;52.772;-3.890;2024-03-07T04:42:01;9.10;;;8.20;;
25435;SDS011;13363;52.772;-3.890;2024-03-07T04:44:27;10.13;;;9.00;;
25435;SDS011;13363;52.772;-3.890;2024-03-07T04:46:53;8.73;;;7.73;;
25435;SDS011;13363;52.772;-3.890;2024-03-07T04:49:24;10.37;;;8.57;;
25435;SDS011;13363;52.772;-3.890;2024-03-07T04:51:50;10.00;;;8.17;;
25435;SDS011;13363;52.772;-3.890;2024-03-07T04:54:17;10.57;;;8.53;;
25435;SDS011;13363;52.772;-3.890;2024-03-07T04:56:44;14.30;;;9.27;;
25435;SDS011;13363;52.772;-3.890;2024-03-07T04:59:10;10.23;;;8.90;;
25435;SDS011;13363;52.772;-3.890;2024-03-07T05:01:37;11.33;;;9.30;;
25435;SDS011;13363;52.772;-3.890;2024-03-07T05:04:04;10.80;;;9.60;;
25435;SDS011;13363;52.772;-3.890;2024-03-07T05:06:30;9.43;;;8.53;;
25435;SDS011;13363;52.772;-3.890;2024-03-07T05:09:02;11.20;;;9.17;;
25435;SDS011;13363;52.772;-3.890;2024-03-07T05:11:29;9.57;;;8.67;;
25435;SDS011;13363;52.772;-3.890;2024-03-07T05:13:55;13.83;;;10.47;;
25435;SDS011;13363;52.772;-3.890;2024-03-07T05:16:23;11.20;;;9.40;;
25435;SDS011;13363;52.772;-3.890;2024-03-07T05:18:50;12.50;;;9.67;;
25435;SDS011;13363;52.772;-3.890;2024-03-07T05:21:17;12.80;;;9.50;;
25435;SDS011;13363;52.772;-3.890;2024-03-07T05:24:02;9.93;;;8.33;;
25435;SDS011;13363;52.772;-3.890;2024-03-07T05:26:28;15.70;;;9.97;;
25435;SDS011;13363;52.772;-3.890;2024-03-07T05:29:02;14.00;;;9.90;;
25435;SDS011;13363;52.772;-3.890;2024-03-07T05:31:33;12.67;;;9.80;;
25435;SDS011;13363;52.772;-3.890;2024-03-07T05:34:02;13.63;;;10.33;;
25435;SDS011;13363;52.772;-3.890;2024-03-07T05:36:30;11.33;;;9.07;;
25435;SDS011;13363;52.772;-3.890;2024-03-07T05:38:57;12.30;;;9.00;;
25435;SDS011;13363;52.772;-3.890;2024-03-07T05:41:23;11.83;;;9.93;;
25435;SDS011;13363;52.772;-3.890;2024-03-07T05:43:49;13.17;;;9.33;;
25435;SDS011;13363;52.772;-3.890;2024-03-07T05:46:16;11.13;;;9.00;;
25435;SDS011;13363;52.772;-3.890;2024-03-07T05:48:42;11.03;;;9.33;;
25435;SDS011;13363;52.772;-3.890;2024-03-07T05:51:11;12.43;;;10.40;;
25435;SDS011;13363;52.772;-3.890;2024-03-07T05:53:37;13.63;;;10.27;;
25435;SDS011;13363;52.772;-3.890;2024-03-07T05:56:03;13.83;;;10.20;;
25435;SDS011;13363;52.772;-3.890;2024-03-07T05:58:29;13.50;;;10.17;;
25435;SDS011;13363;52.772;-3.890;2024-03-07T06:00:55;12.60;;;9.50;;
25435;SDS011;13363;52.772;-3.890;2024-03-07T06:03:22;16.00;;;9.80;;
25435;SDS011;13363;52.772;-3.890;2024-03-07T06:05:49;13.77;;;9.57;;
25435;SDS011;13363;52.772;-3.890;2024-03-07T06:08:16;11.70;;;9.97;;
25435;SDS011;13363;52.772;-3.890;2024-03-07T06:10:43;15.93;;;10.57;;
25435;SDS011;13363;52.772;-3.890;2024-03-07T06:13:13;15.43;;;10.40;;
25435;SDS011;13363;52.772;-3.890;2024-03-07T06:15:42;15.60;;;10.17;;
25435;SDS011;13363;52.772;-3.890;2024-03-07T06:18:08;11.17;;;9.60;;
25435;SDS011;13363;52.772;-3.890;2024-03-07T06:20:44;11.00;;;9.23;;
25435;SDS011;13363;52.772;-3.890;2024-03-07T06:23:10;12.53;;;9.00;;
25435;SDS011;13363;52.772;-3.890;2024-03-07T06:25:41;14.40;;;9.90;;
25435;SDS011;13363;52.772;-3.890;2024-03-07T06:28:12;13.60;;;10.23;;
25435;SDS011;13363;52.772;-3.890;2024-03-07T06:30:39;12.40;;;9.87;;
25435;SDS011;13363;52.772;-3.890;2024-03-07T06:33:08;14.73;;;9.93;;
25435;SDS011;13363;52.772;-3.890;2024-03-07T06:35:35;10.30;;;8.23;;
25435;SDS011;13363;52.772;-3.890;2024-03-07T06:38:05;10.07;;;8.60;;
25435;SDS011;13363;52.772;-3.890;2024-03-07T06:40:31;11.73;;;9.00;;
25435;SDS011;13363;52.772;-3.890;2024-03-07T06:42:58;11.60;;;8.80;;
25435;SDS011;13363;52.772;-3.890;2024-03-07T06:45:24;9.10;;;7.37;;
25435;SDS011;13363;52.772;-3.890;2024-03-07T06:47:51;10.10;;;8.17;;
25435;SDS011;13363;52.772;-3.890;2024-03-07T06:50:20;10.47;;;8.13;;
25435;SDS011;13363;52.772;-3.890;2024-03-07T06:52:46;9.37;;;7.67;;
25435;SDS011;13363;52.772;-3.890;2024-03-07T06:55:16;10.00;;;8.43;;
25435;SDS011;13363;52.772;-3.890;2024-03-07T06:57:43;10.20;;;8.67;;
25435;SDS011;13363;52.772;-3.890;2024-03-07T07:00:10;11.23;;;8.43;;
25435;SDS011;13363;52.772;-3.890;2024-03-07T07:02:37;9.17;;;7.63;;
25435;SDS011;13363;52.772;-3.890;2024-03-07T07:05:04;11.53;;;8.50;;
25435;SDS011;13363;52.772;-3.890;2024-03-07T07:07:36;10.10;;;8.43;;
25435;SDS011;13363;52.772;-3.890;2024-03-07T07:12:54;9.83;;;7.90;;
25435;SDS011;13363;52.772;-3.890;2024-03-07T07:15:21;11.33;;;8.33;;
25435;SDS011;13363;52.772;-3.890;2024-03-07T07:17:47;10.90;;;8.93;;
25435;SDS011;13363;52.772;-3.890;2024-03-07T07:20:17;11.20;;;8.93;;
25435;SDS011;13363;52.772;-3.890;2024-03-07T07:22:44;10.17;;;9.10;;
25435;SDS011;13363;52.772;-3.890;2024-03-07T07:25:14;11.37;;;8.30;;
25435;SDS011;13363;52.772;-3.890;2024-03-07T07:27:42;12.10;;;7.97;;
25435;SDS011;13363;52.772;-3.890;2024-03-07T07:30:10;11.23;;;9.57;;
25435;SDS011;13363;52.772;-3.890;2024-03-07T07:32:36;12.97;;;9.67;;
25435;SDS011;13363;52.772;-3.890;2024-03-07T07:35:03;10.20;;;9.20;;
25435;SDS011;13363;52.772;-3.890;2024-03-07T07:37:34;11.33;;;9.17;;
25435;SDS011;13363;52.772;-3.890;2024-03-07T07:40:00;15.40;;;9.20;;
25435;SDS011;13363;52.772;-3.890;2024-03-07T07:42:27;12.67;;;8.97;;
25435;SDS011;13363;52.772;-3.890;2024-03-07T07:44:53;11.73;;;8.60;;
25435;SDS011;13363;52.772;-3.890;2024-03-07T07:47:19;12.07;;;9.40;;
25435;SDS011;13363;52.772;-3.890;2024-03-07T07:49:45;12.77;;;9.90;;
25435;SDS011;13363;52.772;-3.890;2024-03-07T07:52:11;14.37;;;9.27;;
25435;SDS011;13363;52.772;-3.890;2024-03-07T07:54:41;13.10;;;9.60;;
25435;SDS011;13363;52.772;-3.890;2024-03-07T07:57:07;12.37;;;8.80;;
25435;SDS011;13363;52.772;-3.890;2024-03-07T07:59:34;10.80;;;8.13;;
25435;SDS011;13363;52.772;-3.890;2024-03-07T08:02:02;8.17;;;6.40;;
25435;SDS011;13363;52.772;-3.890;2024-03-07T08:04:31;12.30;;;8.63;;
25435;SDS011;13363;52.772;-3.890;2024-03-07T08:06:58;8.33;;;7.47;;
25435;SDS011;13363;52.772;-3.890;2024-03-07T08:09:25;10.70;;;8.40;;
25435;SDS011;13363;52.772;-3.890;2024-03-07T08:11:51;11.50;;;8.77;;
25435;SDS011;13363;52.772;-3.890;2024-03-07T08:14:17;8.57;;;7.70;;
25435;SDS011;13363;52.772;-3.890;2024-03-07T08:16:47;11.53;;;8.47;;
25435;SDS011;13363;52.772;-3.890;2024-03-07T08:19:14;9.63;;;8.63;;
25435;SDS011;13363;52.772;-3.890;2024-03-07T08:21:40;10.93;;;9.33;;
25435;SDS011;13363;52.772;-3.890;2024-03-07T08:24:06;13.07;;;9.83;;
25435;SDS011;13363;52.772;-3.890;2024-03-07T08:26:36;11.60;;;8.73;;
25435;SDS011;13363;52.772;-3.890;2024-03-07T08:29:02;10.50;;;7.90;;
25435;SDS011;13363;52.772;-3.890;2024-03-07T08:31:30;11.87;;;8.23;;
25435;SDS011;13363;52.772;-3.890;2024-03-07T08:33:56;9.83;;;8.40;;
25435;SDS011;13363;52.772;-3.890;2024-03-07T08:36:22;9.73;;;7.97;;
25435;SDS011;13363;52.772;-3.890;2024-03-07T08:38:48;9.83;;;8.67;;
25435;SDS011;13363;52.772;-3.890;2024-03-07T08:41:17;9.97;;;8.33;;
25435;SDS011;13363;52.772;-3.890;2024-03-07T08:43:43;9.93;;;8.33;;
25435;SDS011;13363;52.772;-3.890;2024-03-07T08:46:09;10.27;;;7.93;;
25435;SDS011;13363;52.772;-3.890;2024-03-07T08:48:36;8.70;;;7.80;;
25435;SDS011;13363;52.772;-3.890;2024-03-07T08:51:03;8.13;;;7.30;;
25435;SDS011;13363;52.772;-3.890;2024-03-07T08:53:29;8.17;;;7.37;;
25435;SDS011;13363;52.772;-3.890;2024-03-07T08:55:55;9.27;;;7.40;;
25435;SDS011;13363;52.772;-3.890;2024-03-07T08:58:23;8.20;;;7.40;;
25435;SDS011;13363;52.772;-3.890;2024-03-07T09:00:49;11.17;;;8.13;;
25435;SDS011;13363;52.772;-3.890;2024-03-07T09:03:17;9.17;;;8.23;;
25435;SDS011;13363;52.772;-3.890;2024-03-07T09:05:43;12.90;;;8.23;;
25435;SDS011;13363;52.772;-3.890;2024-03-07T09:08:10;10.97;;;8.93;;
25435;SDS011;13363;52.772;-3.890;2024-03-07T09:10:36;11.73;;;8.37;;
25435;SDS011;13363;52.772;-3.890;2024-03-07T09:13:06;10.27;;;9.17;;
25435;SDS011;13363;52.772;-3.890;2024-03-07T09:15:32;13.93;;;10.50;;
25435;SDS011;13363;52.772;-3.890;2024-03-07T09:17:58;11.87;;;9.47;;
25435;SDS011;13363;52.772;-3.890;2024-03-07T09:20:26;12.60;;;10.87;;
25435;SDS011;13363;52.772;-3.890;2024-03-07T09:22:52;11.47;;;9.80;;
25435;SDS011;13363;52.772;-3.890;2024-03-07T09:25:20;13.03;;;9.87;;
25435;SDS011;13363;52.772;-3.890;2024-03-07T09:27:46;12.83;;;9.63;;
25435;SDS011;13363;52.772;-3.890;2024-03-07T09:30:13;10.27;;;7.93;;
25435;SDS011;13363;52.772;-3.890;2024-03-07T09:32:45;15.93;;;10.37;;
25435;SDS011;13363;52.772;-3.890;2024-03-07T09:35:20;10.63;;;9.27;;
25435;SDS011;13363;52.772;-3.890;2024-03-07T09:37:47;12.97;;;9.43;;
25435;SDS011;13363;52.772;-3.890;2024-03-07T09:40:14;14.27;;;10.03;;
25435;SDS011;13363;52.772;-3.890;2024-03-07T09:42:44;12.93;;;9.63;;
25435;SDS011;13363;52.772;-3.890;2024-03-07T09:45:15;10.80;;;9.43;;
25435;SDS011;13363;52.772;-3.890;2024-03-07T09:47:47;13.97;;;10.43;;
25435;SDS011;13363;52.772;-3.890;2024-03-07T09:50:15;14.50;;;9.97;;
25435;SDS011;13363;52.772;-3.890;2024-03-07T09:52:44;14.77;;;9.10;;
25435;SDS011;13363;52.772;-3.890;2024-03-07T09:55:11;18.40;;;11.90;;
25435;SDS011;13363;52.772;-3.890;2024-03-07T09:57:38;15.10;;;10.90;;
25435;SDS011;13363;52.772;-3.890;2024-03-07T10:00:05;16.97;;;12.07;;
25435;SDS011;13363;52.772;-3.890;2024-03-07T10:02:32;16.37;;;10.17;;
25435;SDS011;13363;52.772;-3.890;2024-03-07T10:05:04;13.97;;;10.87;;
25435;SDS011;13363;52.772;-3.890;2024-03-07T10:07:31;17.63;;;11.40;;
25435;SDS011;13363;52.772;-3.890;2024-03-07T10:09:59;15.57;;;11.90;;
25435;SDS011;13363;52.772;-3.890;2024-03-07T10:12:31;15.53;;;11.33;;
25435;SDS011;13363;52.772;-3.890;2024-03-07T10:14:57;12.80;;;10.73;;
25435;SDS011;13363;52.772;-3.890;2024-03-07T10:17:24;14.03;;;10.63;;
25435;SDS011;13363;52.772;-3.890;2024-03-07T10:19:54;16.23;;;11.67;;
25435;SDS011;13363;52.772;-3.890;2024-03-07T10:22:21;14.20;;;11.57;;
25435;SDS011;13363;52.772;-3.890;2024-03-07T10:24:51;17.63;;;11.83;;
25435;SDS011;13363;52.772;-3.890;2024-03-07T10:27:21;16.27;;;11.83;;
25435;SDS011;13363;52.772;-3.890;2024-03-07T10:29:48;16.37;;;11.80;;
25435;SDS011;13363;52.772;-3.890;2024-03-07T10:32:20;17.53;;;12.67;;
25435;SDS011;13363;52.772;-3.890;2024-03-07T10:34:47;19.97;;;12.83;;
25435;SDS011;13363;52.772;-3.890;2024-03-07T10:37:14;18.53;;;12.80;;
25435;SDS011;13363;52.772;-3.890;2024-03-07T10:39:45;18.27;;;12.63;;
25435;SDS011;13363;52.772;-3.890;2024-03-07T10:42:13;18.70;;;12.47;;
25435;SDS011;13363;52.772;-3.890;2024-03-07T10:44:43;18.07;;;12.10;;
25435;SDS011;13363;52.772;-3.890;2024-03-07T10:47:19;17.27;;;12.00;;
25435;SDS011;13363;52.772;-3.890;2024-03-07T10:52:29;18.13;;;12.37;;
25435;SDS011;13363;52.772;-3.890;2024-03-07T10:57:31;17.20;;;11.43;;
25435;SDS011;13363;52.772;-3.890;2024-03-07T11:00:03;17.50;;;11.50;;
25435;SDS011;13363;52.772;-3.890;2024-03-07T11:02:49;17.30;;;11.40;;
25435;SDS011;13363;52.772;-3.890;2024-03-07T11:05:18;14.40;;;10.27;;
25435;SDS011;13363;52.772;-3.890;2024-03-07T11:07:44;16.53;;;10.87;;
25435;SDS011;13363;52.772;-3.890;2024-03-07T11:10:11;16.30;;;10.50;;
25435;SDS011;13363;52.772;-3.890;2024-03-07T11:12:38;14.93;;;10.50;;
25435;SDS011;13363;52.772;-3.890;2024-03-07T11:15:06;14.13;;;10.83;;
25435;SDS011;13363;52.772;-3.890;2024-03-07T11:17:41;14.87;;;10.53;;
25435;SDS011;13363;52.772;-3.890;2024-03-07T11:20:23;12.87;;;9.17;;
25435;SDS011;13363;52.772;-3.890;2024-03-07T11:22:51;14.23;;;10.53;;
25435;SDS011;13363;52.772;-3.890;2024-03-07T11:25:21;13.50;;;10.43;;
25435;SDS011;13363;52.772;-3.890;2024-03-07T11:28:27;12.40;;;10.00;;
25435;SDS011;13363;52.772;-3.890;2024-03-07T11:30:41;15.67;;;11.90;;
25435;SDS011;13363;52.772;-3.890;2024-03-07T11:33:07;14.20;;;10.43;;
25435;SDS011;13363;52.772;-3.890;2024-03-07T11:35:33;12.57;;;10.00;;
25435;SDS011;13363;52.772;-3.890;2024-03-07T11:38:05;16.90;;;11.00;;
25435;SDS011;13363;52.772;-3.890;2024-03-07T11:43:03;14.93;;;10.93;;
25435;SDS011;13363;52.772;-3.890;2024-03-07T11:45:30;17.27;;;10.67;;
25435;SDS011;13363;52.772;-3.890;2024-03-07T11:48:03;13.80;;;10.67;;
25435;SDS011;13363;52.772;-3.890;2024-03-07T11:50:37;15.07;;;11.10;;
25435;SDS011;13363;52.772;-3.890;2024-03-07T11:53:04;18.43;;;12.13;;
25435;SDS011;13363;52.772;-3.890;2024-03-07T11:55:31;19.37;;;12.60;;
25435;SDS011;13363;52.772;-3.890;2024-03-07T11:58:13;18.73;;;11.97;;
25435;SDS011;13363;52.772;-3.890;2024-03-07T12:00:43;19.57;;;12.40;;
25435;SDS011;13363;52.772;-3.890;2024-03-07T12:03:18;22.00;;;13.77;;
25435;SDS011;13363;52.772;-3.890;2024-03-07T12:05:48;14.43;;;10.67;;
25435;SDS011;13363;52.772;-3.890;2024-03-07T12:08:17;18.20;;;12.13;;
25435;SDS011;13363;52.772;-3.890;2024-03-07T12:10:43;19.20;;;11.90;;
25435;SDS011;13363;52.772;-3.890;2024-03-07T12:13:10;14.53;;;11.33;;
25435;SDS011;13363;52.772;-3.890;2024-03-07T12:15:40;17.20;;;11.83;;
25435;SDS011;13363;52.772;-3.890;2024-03-07T12:18:07;18.07;;;12.00;;
25435;SDS011;13363;52.772;-3.890;2024-03-07T12:20:37;17.03;;;11.27;;
25435;SDS011;13363;52.772;-3.890;2024-03-07T12:23:04;17.07;;;12.30;;
25435;SDS011;13363;52.772;-3.890;2024-03-07T12:25:34;17.13;;;12.03;;
25435;SDS011;13363;52.772;-3.890;2024-03-07T12:28:08;17.60;;;12.23;;
25435;SDS011;13363;52.772;-3.890;2024-03-07T12:33:13;19.37;;;11.33;;
25435;SDS011;13363;52.772;-3.890;2024-03-07T12:35:43;17.60;;;12.73;;
25435;SDS011;13363;52.772;-3.890;2024-03-07T12:38:09;17.93;;;11.30;;
25435;SDS011;13363;52.772;-3.890;2024-03-07T12:40:37;18.80;;;12.53;;
25435;SDS011;13363;52.772;-3.890;2024-03-07T12:45:48;18.80;;;12.70;;
25435;SDS011;13363;52.772;-3.890;2024-03-07T12:48:15;19.60;;;11.67;;
25435;SDS011;13363;52.772;-3.890;2024-03-07T12:50:41;22.80;;;12.80;;
25435;SDS011;13363;52.772;-3.890;2024-03-07T12:53:09;20.10;;;12.60;;
25435;SDS011;13363;52.772;-3.890;2024-03-07T12:55:40;23.87;;;13.80;;
25435;SDS011;13363;52.772;-3.890;2024-03-07T12:58:09;19.03;;;12.60;;
25435;SDS011;13363;52.772;-3.890;2024-03-07T13:00:39;16.93;;;12.23;;
25435;SDS011;13363;52.772;-3.890;2024-03-07T13:03:08;18.10;;;13.00;;
25435;SDS011;13363;52.772;-3.890;2024-03-07T13:05:39;18.50;;;13.10;;
25435;SDS011;13363;52.772;-3.890;2024-03-07T13:08:09;23.33;;;15.60;;
25435;SDS011;13363;52.772;-3.890;2024-03-07T13:10:41;22.63;;;15.60;;
25435;SDS011;13363;52.772;-3.890;2024-03-07T13:13:08;24.23;;;16.47;;
25435;SDS011;13363;52.772;-3.890;2024-03-07T13:15:40;25.93;;;16.83;;
25435;SDS011;13363;52.772;-3.890;2024-03-07T13:18:08;26.93;;;17.03;;
25435;SDS011;13363;52.772;-3.890;2024-03-07T13:20:34;26.20;;;17.37;;
25435;SDS011;13363;52.772;-3.890;2024-03-07T13:23:01;27.87;;;18.00;;
25435;SDS011;13363;52.772;-3.890;2024-03-07T13:25:28;30.67;;;17.53;;
25435;SDS011;13363;52.772;-3.890;2024-03-07T13:28:02;30.07;;;18.77;;
25435;SDS011;13363;52.772;-3.890;2024-03-07T13:30:32;30.63;;;18.87;;
25435;SDS011;13363;52.772;-3.890;2024-03-07T13:33:01;27.93;;;18.00;;
25435;SDS011;13363;52.772;-3.890;2024-03-07T13:35:28;28.30;;;17.23;;
25435;SDS011;13363;52.772;-3.890;2024-03-07T13:37:55;32.57;;;19.07;;
25435;SDS011;13363;52.772;-3.890;2024-03-07T13:40:22;32.47;;;18.67;;
25435;SDS011;13363;52.772;-3.890;2024-03-07T13:42:49;32.20;;;18.57;;
25435;SDS011;13363;52.772;-3.890;2024-03-07T13:45:23;28.20;;;17.83;;
25435;SDS011;13363;52.772;-3.890;2024-03-07T13:47:51;26.67;;;18.13;;
25435;SDS011;13363;52.772;-3.890;2024-03-07T13:50:19;30.50;;;18.53;;
25435;SDS011;13363;52.772;-3.890;2024-03-07T13:52:47;30.60;;;18.90;;
25435;SDS011;13363;52.772;-3.890;2024-03-07T13:55:31;29.33;;;17.87;;
25435;SDS011;13363;52.772;-3.890;2024-03-07T13:57:58;27.60;;;18.43;;
25435;SDS011;13363;52.772;-3.890;2024-03-07T14:05:46;27.17;;;17.73;;
25435;SDS011;13363;52.772;-3.890;2024-03-07T14:10:52;25.03;;;16.67;;
25435;SDS011;13363;52.772;-3.890;2024-03-07T14:13:45;25.60;;;18.23;;
25435;SDS011;13363;52.772;-3.890;2024-03-07T14:21:53;21.97;;;16.10;;
25435;SDS011;13363;52.772;-3.890;2024-03-07T14:32:39;20.40;;;16.17;;
25435;SDS011;13363;52.772;-3.890;2024-03-07T14:35:25;23.27;;;15.53;;
25435;SDS011;13363;52.772;-3.890;2024-03-07T14:40:22;21.07;;;15.70;;
25435;SDS011;13363;52.772;-3.890;2024-03-07T14:42:50;22.77;;;15.17;;
25435;SDS011;13363;52.772;-3.890;2024-03-07T14:45:19;21.10;;;16.63;;
25435;SDS011;13363;52.772;-3.890;2024-03-07T14:47:48;23.27;;;16.10;;
25435;SDS011;13363;52.772;-3.890;2024-03-07T14:50:15;20.43;;;14.97;;
25435;SDS011;13363;52.772;-3.890;2024-03-07T14:52:44;25.07;;;16.77;;
25435;SDS011;13363;52.772;-3.890;2024-03-07T14:55:11;21.77;;;14.50;;
25435;SDS011;13363;52.772;-3.890;2024-03-07T14:57:40;21.03;;;15.20;;
25435;SDS011;13363;52.772;-3.890;2024-03-07T15:00:09;20.37;;;14.43;;
25435;SDS011;13363;52.772;-3.890;2024-03-07T15:02:47;21.80;;;14.07;;
25435;SDS011;13363;52.772;-3.890;2024-03-07T15:05:17;18.50;;;13.97;;